Terminal Aerodrome Forecast
Issued by NWS Shreveport, LA

Home | Current Version | Previous Version | Text Only | Print | Product List | Glossary On
Versions: 1 2 3 4 5 6 7 8 9 10 11 12 13 14 15 16 17 18 19 20 21 22
000
FTUS44 KSHV 250732 AAB
TAFSHV
TAF AMD
KSHV 250732Z 2508/2606 16007KT P6SM BKN005
      TEMPO 2508/2512 SCT005 OVC010
     FM251200 16005KT P6SM OVC010
     FM251800 16010KT P6SM VCTS SCT015 BKN035CB
     FM252100 17012KT 5SM -TSRA BR BKN035CB=

USA.gov is the U.S. government's official web portal to all federal, state and local government web resources and services.